Terminal Aerodrome Forecast
Issued by NWS

Home | Current Version | Previous Version | Text Only | Print | Product List | Glossary On
Versions: 1 2 3 4 5 6 7 8 9 10 11 12 13 14 15 16 17
000
FTUS43 KOAX 021740
TAFSNY
TAF
KSNY 021740Z 0218/0318 23010KT P6SM SCT050
     FM022100 10008KT P6SM VCTS BKN050CB
     FM030300 10007KT P6SM SCT015
     FM031000 35008KT P6SM VCFG SCT008 BKN015=

USA.gov is the U.S. government's official web portal to all federal, state and local government web resources and services.